CheckWX is a tool to help pilots better visualize weather data.  It is not intended as a substitute for an official pre-flight weather briefing.

07:29:10 UTC

KNTD METAR
Point Mugu NAS (Naval Base Ventura Co) Airport
Oxnard, California, USA
Current

32 mins ago

KNTD 150657Z 00000KT 10SM FEW015 FEW220 13/11 A3013 RMK AO2 SLP203 T01280111 VISNO N $
Observed
Nov-15 @ 06:57 UTC
Visibility
10 SM
Flight Rules
VFR
Cloud Levels
  • Few at 1,500' AGL
  • Few at 22,000' AGL
Temperature
13°C / 55°F
Dewpoint
11°C / 52°F
Humidity
88%
Altimeter
30.13" Hg
Pressure
1020.32 hPa
Previous

2 hours ago

KNTD 150557Z 00000KT 10SM FEW015 FEW019 SCT220 SCT280 14/12 A3013 RMK AO2 SLP203 T01390122 10178 20139 53006 VISNO N $
Observed
Nov-15 @ 05:57 UTC
Visibility
10 SM
Flight Rules
VFR
Cloud Levels
  • Few at 1,500' AGL
  • Few at 1,900' AGL
  • Scattered at 22,000' AGL
  • Scattered at 28,000' AGL
Temperature
14°C / 57°F
Dewpoint
12°C / 54°F
Humidity
88%
Altimeter
30.13" Hg
Pressure
1020.32 hPa
Previous

3 hours ago

KNTD 150457Z 30003KT 10SM FEW017 SCT220 BKN280 15/12 A3012 RMK AO2 SLP201 T01500122 VISNO N $
Observed
Nov-15 @ 04:57 UTC
Wind
  • 300° at 3 KTS
Visibility
10 SM
Flight Rules
VFR
Cloud Levels
  • Few at 1,700' AGL
  • Scattered at 22,000' AGL
  • Broken at 28,000' AGL
Temperature
15°C / 59°F
Dewpoint
12°C / 54°F
Humidity
82%
Altimeter
30.12" Hg
Pressure
1020.02 hPa